sensor_id;sensor_type;location;lat;lon;timestamp;pressure;altitude;pressure_sealevel;temperature;humidity
47742;BME280;33504;52.066;6.096;2022-11-02T00:00:21;101283.15;;;15.74;41.27
47742;BME280;33504;52.066;6.096;2022-11-02T00:02:49;101284.40;;;15.46;41.49
47742;BME280;33504;52.066;6.096;2022-11-02T00:05:15;101278.38;;;15.51;41.31
47742;BME280;33504;52.066;6.096;2022-11-02T00:07:43;101279.46;;;15.66;41.09
47742;BME280;33504;52.066;6.096;2022-11-02T00:10:10;101285.46;;;15.38;41.47
47742;BME280;33504;52.066;6.096;2022-11-02T00:12:36;101272.35;;;15.36;41.63
47742;BME280;33504;52.066;6.096;2022-11-02T00:15:05;101274.91;;;15.46;41.51
47742;BME280;33504;52.066;6.096;2022-11-02T00:17:33;101278.06;;;15.25;41.78
47742;BME280;33504;52.066;6.096;2022-11-02T00:20:01;101284.77;;;15.00;42.18
47742;BME280;33504;52.066;6.096;2022-11-02T00:22:30;101286.63;;;15.70;41.15
47742;BME280;33504;52.066;6.096;2022-11-02T00:24:57;101278.26;;;15.22;41.87
47742;BME280;33504;52.066;6.096;2022-11-02T00:27:25;101281.49;;;15.42;42.12
47742;BME280;33504;52.066;6.096;2022-11-02T00:29:52;101274.19;;;15.51;42.16
47742;BME280;33504;52.066;6.096;2022-11-02T00:32:19;101259.72;;;15.18;42.75
47742;BME280;33504;52.066;6.096;2022-11-02T00:34:46;101267.87;;;15.34;42.57
47742;BME280;33504;52.066;6.096;2022-11-02T00:37:12;101276.81;;;14.86;43.05
47742;BME280;33504;52.066;6.096;2022-11-02T00:39:39;101288.94;;;15.02;43.45
47742;BME280;33504;52.066;6.096;2022-11-02T00:42:06;101273.13;;;15.67;43.72
47742;BME280;33504;52.066;6.096;2022-11-02T00:44:33;101275.62;;;14.95;45.01
47742;BME280;33504;52.066;6.096;2022-11-02T00:46:59;101281.14;;;15.18;44.51
47742;BME280;33504;52.066;6.096;2022-11-02T00:49:26;101283.67;;;14.81;45.77
47742;BME280;33504;52.066;6.096;2022-11-02T00:51:53;101284.81;;;14.59;45.75
47742;BME280;33504;52.066;6.096;2022-11-02T00:54:19;101273.61;;;15.03;45.44
47742;BME280;33504;52.066;6.096;2022-11-02T00:56:46;101273.24;;;14.82;45.67
47742;BME280;33504;52.066;6.096;2022-11-02T00:59:13;101274.41;;;14.71;46.12
47742;BME280;33504;52.066;6.096;2022-11-02T01:01:40;101274.98;;;14.35;46.65
47742;BME280;33504;52.066;6.096;2022-11-02T01:04:07;101272.92;;;14.78;46.20
47742;BME280;33504;52.066;6.096;2022-11-02T01:06:34;101279.13;;;14.59;46.21
47742;BME280;33504;52.066;6.096;2022-11-02T01:09:03;101277.10;;;14.49;46.76
47742;BME280;33504;52.066;6.096;2022-11-02T01:11:30;101269.77;;;14.68;46.53
47742;BME280;33504;52.066;6.096;2022-11-02T01:13:56;101261.28;;;14.45;46.31
47742;BME280;33504;52.066;6.096;2022-11-02T01:16:23;101268.70;;;14.28;46.58
47742;BME280;33504;52.066;6.096;2022-11-02T01:18:51;101265.45;;;14.52;46.18
47742;BME280;33504;52.066;6.096;2022-11-02T01:21:19;101265.69;;;14.02;46.84
47742;BME280;33504;52.066;6.096;2022-11-02T01:23:46;101269.84;;;14.54;45.58
47742;BME280;33504;52.066;6.096;2022-11-02T01:26:14;101272.71;;;14.34;46.05
47742;BME280;33504;52.066;6.096;2022-11-02T01:28:41;101267.73;;;14.59;45.57
47742;BME280;33504;52.066;6.096;2022-11-02T01:31:10;101277.55;;;14.52;45.53
47742;BME280;33504;52.066;6.096;2022-11-02T01:33:41;101276.57;;;14.77;44.82
47742;BME280;33504;52.066;6.096;2022-11-02T01:36:09;101280.89;;;14.74;45.34
47742;BME280;33504;52.066;6.096;2022-11-02T01:38:36;101287.32;;;14.61;45.66
47742;BME280;33504;52.066;6.096;2022-11-02T01:41:03;101290.76;;;14.56;45.52
47742;BME280;33504;52.066;6.096;2022-11-02T01:43:34;101288.71;;;14.97;45.19
47742;BME280;33504;52.066;6.096;2022-11-02T01:46:05;101286.43;;;14.87;45.02
47742;BME280;33504;52.066;6.096;2022-11-02T01:48:35;101280.74;;;15.10;44.68
47742;BME280;33504;52.066;6.096;2022-11-02T01:51:08;101278.56;;;15.29;44.45
47742;BME280;33504;52.066;6.096;2022-11-02T01:53:38;101284.09;;;14.61;44.97
47742;BME280;33504;52.066;6.096;2022-11-02T01:56:08;101285.83;;;14.88;44.68
47742;BME280;33504;52.066;6.096;2022-11-02T01:58:36;101335.26;;;14.98;45.58
47742;BME280;33504;52.066;6.096;2022-11-02T02:01:03;101364.48;;;15.00;47.05
47742;BME280;33504;52.066;6.096;2022-11-02T02:03:32;101355.13;;;14.09;46.29
47742;BME280;33504;52.066;6.096;2022-11-02T02:06:04;101344.76;;;13.82;46.33
47742;BME280;33504;52.066;6.096;2022-11-02T02:08:36;101362.38;;;13.38;47.07
47742;BME280;33504;52.066;6.096;2022-11-02T02:11:24;101354.50;;;13.49;47.08
47742;BME280;33504;52.066;6.096;2022-11-02T02:13:52;101346.84;;;13.15;46.76
47742;BME280;33504;52.066;6.096;2022-11-02T02:16:25;101343.14;;;13.53;46.57
47742;BME280;33504;52.066;6.096;2022-11-02T02:19:00;101355.28;;;13.02;47.12
47742;BME280;33504;52.066;6.096;2022-11-02T02:21:39;101349.35;;;13.08;46.56
47742;BME280;33504;52.066;6.096;2022-11-02T02:24:23;101350.26;;;12.72;46.48
47742;BME280;33504;52.066;6.096;2022-11-02T02:27:17;101343.80;;;12.91;46.71
47742;BME280;33504;52.066;6.096;2022-11-02T02:29:52;101338.03;;;12.82;47.16
47742;BME280;33504;52.066;6.096;2022-11-02T02:32:30;101336.66;;;12.76;46.75
47742;BME280;33504;52.066;6.096;2022-11-02T02:35:09;101325.48;;;12.72;46.24
47742;BME280;33504;52.066;6.096;2022-11-02T02:37:41;101320.46;;;12.91;46.76
47742;BME280;33504;52.066;6.096;2022-11-02T02:40:14;101320.26;;;12.51;47.04
47742;BME280;33504;52.066;6.096;2022-11-02T02:42:47;101312.65;;;12.81;45.76
47742;BME280;33504;52.066;6.096;2022-11-02T02:45:21;101307.58;;;13.31;45.27
47742;BME280;33504;52.066;6.096;2022-11-02T02:47:54;101307.55;;;13.55;46.24
47742;BME280;33504;52.066;6.096;2022-11-02T02:50:28;101310.02;;;13.24;45.92
47742;BME280;33504;52.066;6.096;2022-11-02T02:52:57;101307.66;;;13.32;45.56
47742;BME280;33504;52.066;6.096;2022-11-02T02:55:33;101312.00;;;13.38;45.57
47742;BME280;33504;52.066;6.096;2022-11-02T02:58:04;101310.31;;;13.09;46.39
47742;BME280;33504;52.066;6.096;2022-11-02T03:00:33;101312.69;;;13.43;46.24
47742;BME280;33504;52.066;6.096;2022-11-02T03:03:02;101320.08;;;12.48;46.95
47742;BME280;33504;52.066;6.096;2022-11-02T03:05:31;101320.29;;;12.75;47.42
47742;BME280;33504;52.066;6.096;2022-11-02T03:08:02;101321.97;;;12.80;46.92
47742;BME280;33504;52.066;6.096;2022-11-02T03:10:33;101316.87;;;12.92;47.22
47742;BME280;33504;52.066;6.096;2022-11-02T03:13:09;101320.19;;;13.18;46.65
47742;BME280;33504;52.066;6.096;2022-11-02T03:15:44;101324.93;;;12.86;46.74
47742;BME280;33504;52.066;6.096;2022-11-02T03:18:18;101335.65;;;12.46;46.96
47742;BME280;33504;52.066;6.096;2022-11-02T03:20:56;101336.34;;;12.64;47.27
47742;BME280;33504;52.066;6.096;2022-11-02T03:23:34;101332.81;;;12.57;46.96
47742;BME280;33504;52.066;6.096;2022-11-02T03:26:07;101332.83;;;12.96;46.70
47742;BME280;33504;52.066;6.096;2022-11-02T03:28:49;101326.71;;;13.05;46.65
47742;BME280;33504;52.066;6.096;2022-11-02T03:31:30;101324.83;;;12.59;47.62
47742;BME280;33504;52.066;6.096;2022-11-02T03:34:02;101327.74;;;12.96;47.54
47742;BME280;33504;52.066;6.096;2022-11-02T03:36:34;101333.57;;;12.40;48.03
47742;BME280;33504;52.066;6.096;2022-11-02T03:39:05;101335.30;;;12.67;47.71
47742;BME280;33504;52.066;6.096;2022-11-02T03:41:34;101339.06;;;12.43;47.96
47742;BME280;33504;52.066;6.096;2022-11-02T03:44:07;101333.61;;;12.70;47.69
47742;BME280;33504;52.066;6.096;2022-11-02T03:46:39;101335.10;;;13.00;47.43
47742;BME280;33504;52.066;6.096;2022-11-02T03:49:11;101328.38;;;13.20;47.14
47742;BME280;33504;52.066;6.096;2022-11-02T03:51:41;101330.44;;;12.67;47.52
47742;BME280;33504;52.066;6.096;2022-11-02T03:54:12;101331.51;;;12.92;47.42
47742;BME280;33504;52.066;6.096;2022-11-02T03:56:44;101338.31;;;12.56;47.64
47742;BME280;33504;52.066;6.096;2022-11-02T03:59:12;101339.48;;;12.87;47.51
47742;BME280;33504;52.066;6.096;2022-11-02T04:01:41;101336.35;;;12.55;47.97
47742;BME280;33504;52.066;6.096;2022-11-02T04:04:09;101330.89;;;12.84;47.07
47742;BME280;33504;52.066;6.096;2022-11-02T04:06:37;101330.76;;;12.72;46.64
47742;BME280;33504;52.066;6.096;2022-11-02T04:09:04;101343.78;;;12.56;47.17
47742;BME280;33504;52.066;6.096;2022-11-02T04:11:32;101345.05;;;12.65;47.43
47742;BME280;33504;52.066;6.096;2022-11-02T04:13:59;101345.15;;;12.82;46.93
47742;BME280;33504;52.066;6.096;2022-11-02T04:16:27;101351.41;;;12.66;47.43
47742;BME280;33504;52.066;6.096;2022-11-02T04:18:53;101353.79;;;12.98;47.01
47742;BME280;33504;52.066;6.096;2022-11-02T04:21:21;101353.85;;;12.95;46.64
47742;BME280;33504;52.066;6.096;2022-11-02T04:23:48;101351.62;;;13.16;46.32
47742;BME280;33504;52.066;6.096;2022-11-02T04:26:14;101361.35;;;12.84;46.09
47742;BME280;33504;52.066;6.096;2022-11-02T04:28:41;101357.49;;;12.97;46.06
47742;BME280;33504;52.066;6.096;2022-11-02T04:31:08;101361.45;;;12.65;46.74
47742;BME280;33504;52.066;6.096;2022-11-02T04:33:35;101363.52;;;12.90;46.29
47742;BME280;33504;52.066;6.096;2022-11-02T04:36:03;101369.98;;;12.90;46.26
47742;BME280;33504;52.066;6.096;2022-11-02T04:38:32;101362.59;;;12.75;46.79
47742;BME280;33504;52.066;6.096;2022-11-02T04:40:59;101374.10;;;12.57;46.69
47742;BME280;33504;52.066;6.096;2022-11-02T04:43:26;101380.53;;;12.74;46.50
47742;BME280;33504;52.066;6.096;2022-11-02T04:45:52;101375.02;;;13.04;45.95
47742;BME280;33504;52.066;6.096;2022-11-02T04:48:23;101382.97;;;13.24;45.78
47742;BME280;33504;52.066;6.096;2022-11-02T04:50:49;101383.58;;;12.68;46.49
47742;BME280;33504;52.066;6.096;2022-11-02T04:53:16;101389.76;;;13.12;45.30
47742;BME280;33504;52.066;6.096;2022-11-02T04:55:45;101402.63;;;12.65;45.92
47742;BME280;33504;52.066;6.096;2022-11-02T04:58:12;101411.32;;;12.94;45.65
47742;BME280;33504;52.066;6.096;2022-11-02T05:00:39;101412.28;;;13.02;45.50
47742;BME280;33504;52.066;6.096;2022-11-02T05:03:07;101425.05;;;12.61;45.84
47742;BME280;33504;52.066;6.096;2022-11-02T05:05:34;101425.65;;;13.07;45.48
47742;BME280;33504;52.066;6.096;2022-11-02T05:08:01;101421.74;;;13.23;45.03
47742;BME280;33504;52.066;6.096;2022-11-02T05:10:27;101429.42;;;12.77;44.98
47742;BME280;33504;52.066;6.096;2022-11-02T05:12:56;101429.88;;;13.16;45.11
47742;BME280;33504;52.066;6.096;2022-11-02T05:15:23;101433.31;;;12.77;45.40
47742;BME280;33504;52.066;6.096;2022-11-02T05:17:49;101426.30;;;13.14;45.23
47742;BME280;33504;52.066;6.096;2022-11-02T05:20:16;101436.90;;;13.48;44.62
47742;BME280;33504;52.066;6.096;2022-11-02T05:22:43;101429.54;;;13.11;45.20
47742;BME280;33504;52.066;6.096;2022-11-02T05:25:11;101437.51;;;13.44;44.72
47742;BME280;33504;52.066;6.096;2022-11-02T05:27:38;101432.11;;;13.29;44.64
47742;BME280;33504;52.066;6.096;2022-11-02T05:30:06;101436.68;;;13.25;44.77
47742;BME280;33504;52.066;6.096;2022-11-02T05:32:33;101433.59;;;13.41;44.85
47742;BME280;33504;52.066;6.096;2022-11-02T05:34:59;101434.69;;;12.78;45.13
47742;BME280;33504;52.066;6.096;2022-11-02T05:37:27;101442.35;;;13.40;44.81
47742;BME280;33504;52.066;6.096;2022-11-02T05:39:53;101451.06;;;13.18;44.77
47742;BME280;33504;52.066;6.096;2022-11-02T05:42:20;101448.60;;;13.22;44.83
47742;BME280;33504;52.066;6.096;2022-11-02T05:44:47;101461.76;;;12.88;44.75
47742;BME280;33504;52.066;6.096;2022-11-02T05:47:14;101466.23;;;13.35;45.32
47742;BME280;33504;52.066;6.096;2022-11-02T05:49:41;101470.19;;;13.27;44.52
47742;BME280;33504;52.066;6.096;2022-11-02T05:52:08;101474.55;;;13.44;44.35
47742;BME280;33504;52.066;6.096;2022-11-02T05:54:35;101472.77;;;13.37;44.79
47742;BME280;33504;52.066;6.096;2022-11-02T05:57:02;101474.03;;;13.34;44.86
47742;BME280;33504;52.066;6.096;2022-11-02T05:59:30;101488.13;;;13.35;44.50
47742;BME280;33504;52.066;6.096;2022-11-02T06:01:57;101498.70;;;13.26;44.71
47742;BME280;33504;52.066;6.096;2022-11-02T06:04:23;101494.07;;;13.31;44.60
47742;BME280;33504;52.066;6.096;2022-11-02T06:06:50;101497.11;;;13.52;44.40
47742;BME280;33504;52.066;6.096;2022-11-02T06:09:17;101490.73;;;12.97;44.68
47742;BME280;33504;52.066;6.096;2022-11-02T06:11:45;101514.35;;;13.70;44.10
47742;BME280;33504;52.066;6.096;2022-11-02T06:14:11;101502.90;;;13.09;44.66
47742;BME280;33504;52.066;6.096;2022-11-02T06:16:38;101504.78;;;12.77;45.21
47742;BME280;33504;52.066;6.096;2022-11-02T06:19:05;101511.64;;;13.06;45.34
47742;BME280;33504;52.066;6.096;2022-11-02T06:21:32;101518.89;;;13.41;44.51
47742;BME280;33504;52.066;6.096;2022-11-02T06:23:58;101526.46;;;12.86;45.59
47742;BME280;33504;52.066;6.096;2022-11-02T06:26:25;101529.61;;;13.17;45.21
47742;BME280;33504;52.066;6.096;2022-11-02T06:28:52;101539.30;;;13.36;45.18
47742;BME280;33504;52.066;6.096;2022-11-02T06:31:19;101544.17;;;13.63;45.02
47742;BME280;33504;52.066;6.096;2022-11-02T06:33:46;101550.46;;;13.17;45.04
47742;BME280;33504;52.066;6.096;2022-11-02T06:36:13;101563.74;;;12.93;45.44
47742;BME280;33504;52.066;6.096;2022-11-02T06:38:40;101555.82;;;13.50;45.19
47742;BME280;33504;52.066;6.096;2022-11-02T06:41:07;101563.40;;;12.91;45.41
47742;BME280;33504;52.066;6.096;2022-11-02T06:43:33;101564.32;;;13.21;45.06
47742;BME280;33504;52.066;6.096;2022-11-02T06:46:00;101573.61;;;13.38;45.02
47742;BME280;33504;52.066;6.096;2022-11-02T06:48:27;101575.86;;;12.98;45.40
47742;BME280;33504;52.066;6.096;2022-11-02T06:50:55;101581.08;;;13.09;45.37
47742;BME280;33504;52.066;6.096;2022-11-02T06:53:23;101618.74;;;13.29;45.10
47742;BME280;33504;52.066;6.096;2022-11-02T06:55:51;101600.37;;;12.96;45.49
47742;BME280;33504;52.066;6.096;2022-11-02T06:58:18;101605.80;;;13.40;45.26
47742;BME280;33504;52.066;6.096;2022-11-02T07:00:45;101609.26;;;12.98;45.61
47742;BME280;33504;52.066;6.096;2022-11-02T07:03:12;101618.61;;;12.96;45.63
47742;BME280;33504;52.066;6.096;2022-11-02T07:05:39;101624.48;;;12.94;45.52
47742;BME280;33504;52.066;6.096;2022-11-02T07:08:06;101633.77;;;12.80;45.95
47742;BME280;33504;52.066;6.096;2022-11-02T07:10:33;101635.99;;;13.20;45.63
47742;BME280;33504;52.066;6.096;2022-11-02T07:13:00;101638.65;;;13.13;45.48
47742;BME280;33504;52.066;6.096;2022-11-02T07:15:27;101647.22;;;13.32;44.91
47742;BME280;33504;52.066;6.096;2022-11-02T07:17:54;101650.97;;;12.93;45.24
47742;BME280;33504;52.066;6.096;2022-11-02T07:20:21;101658.21;;;13.08;45.21
47742;BME280;33504;52.066;6.096;2022-11-02T07:22:52;101670.89;;;13.10;45.07
47742;BME280;33504;52.066;6.096;2022-11-02T07:25:20;101675.93;;;12.94;45.79
47742;BME280;33504;52.066;6.096;2022-11-02T07:27:47;101682.11;;;12.77;45.65
47742;BME280;33504;52.066;6.096;2022-11-02T07:30:14;101685.78;;;12.88;45.42
47742;BME280;33504;52.066;6.096;2022-11-02T07:32:43;101693.48;;;12.66;45.74
47742;BME280;33504;52.066;6.096;2022-11-02T07:35:14;101698.80;;;13.43;44.71
47742;BME280;33504;52.066;6.096;2022-11-02T07:37:41;101704.46;;;12.79;45.33
47742;BME280;33504;52.066;6.096;2022-11-02T07:40:11;101707.30;;;13.87;44.07
47742;BME280;33504;52.066;6.096;2022-11-02T07:42:43;101710.36;;;14.23;43.07
47742;BME280;33504;52.066;6.096;2022-11-02T07:45:10;101715.53;;;14.71;42.33
47742;BME280;33504;52.066;6.096;2022-11-02T07:47:42;101718.00;;;14.82;41.97
47742;BME280;33504;52.066;6.096;2022-11-02T07:50:09;101729.80;;;15.01;41.28
47742;BME280;33504;52.066;6.096;2022-11-02T07:52:43;101725.90;;;15.22;40.80
47742;BME280;33504;52.066;6.096;2022-11-02T07:55:11;101725.52;;;15.73;40.10
47742;BME280;33504;52.066;6.096;2022-11-02T07:57:37;101729.91;;;15.90;39.69
47742;BME280;33504;52.066;6.096;2022-11-02T08:00:05;101727.14;;;16.19;39.56
47742;BME280;33504;52.066;6.096;2022-11-02T08:02:32;101725.91;;;16.09;39.14
47742;BME280;33504;52.066;6.096;2022-11-02T08:04:59;101734.59;;;15.49;39.53
47742;BME280;33504;52.066;6.096;2022-11-02T08:07:26;101748.64;;;15.44;40.02
47742;BME280;33504;52.066;6.096;2022-11-02T08:09:52;101760.11;;;15.31;40.18
47742;BME280;33504;52.066;6.096;2022-11-02T08:12:20;101760.10;;;14.83;40.92
47742;BME280;33504;52.066;6.096;2022-11-02T08:14:46;101761.62;;;15.18;40.71
47742;BME280;33504;52.066;6.096;2022-11-02T08:17:13;101768.42;;;14.70;41.56
47742;BME280;33504;52.066;6.096;2022-11-02T08:19:40;101770.56;;;14.45;41.74
47742;BME280;33504;52.066;6.096;2022-11-02T08:22:07;101774.02;;;14.88;42.07
47742;BME280;33504;52.066;6.096;2022-11-02T08:24:33;101781.19;;;15.48;40.43
47742;BME280;33504;52.066;6.096;2022-11-02T08:27:01;101778.65;;;16.07;39.87
47742;BME280;33504;52.066;6.096;2022-11-02T08:29:27;101779.72;;;15.87;39.11
47742;BME280;33504;52.066;6.096;2022-11-02T08:31:55;101782.52;;;16.18;39.01
47742;BME280;33504;52.066;6.096;2022-11-02T08:34:21;101787.53;;;15.31;39.66
47742;BME280;33504;52.066;6.096;2022-11-02T08:36:48;101784.24;;;16.13;39.13
47742;BME280;33504;52.066;6.096;2022-11-02T08:39:15;101782.28;;;16.37;38.58
47742;BME280;33504;52.066;6.096;2022-11-02T08:41:41;101788.21;;;16.88;37.83
47742;BME280;33504;52.066;6.096;2022-11-02T08:44:08;101790.63;;;17.25;37.24
47742;BME280;33504;52.066;6.096;2022-11-02T08:46:35;101797.98;;;17.97;36.40
47742;BME280;33504;52.066;6.096;2022-11-02T08:49:02;101795.52;;;17.75;36.03
47742;BME280;33504;52.066;6.096;2022-11-02T08:51:29;101806.12;;;18.42;35.99
47742;BME280;33504;52.066;6.096;2022-11-02T08:53:56;101811.01;;;19.28;34.58
47742;BME280;33504;52.066;6.096;2022-11-02T08:56:23;101811.25;;;19.44;33.12
47742;BME280;33504;52.066;6.096;2022-11-02T08:58:50;101811.91;;;19.22;32.61
47742;BME280;33504;52.066;6.096;2022-11-02T09:01:17;101816.56;;;19.71;32.78
47742;BME280;33504;52.066;6.096;2022-11-02T09:03:44;101814.61;;;19.28;32.40
47742;BME280;33504;52.066;6.096;2022-11-02T09:06:11;101816.85;;;19.31;33.12
47742;BME280;33504;52.066;6.096;2022-11-02T09:08:38;101809.46;;;19.67;32.70
47742;BME280;33504;52.066;6.096;2022-11-02T09:11:05;101813.92;;;19.71;32.20
47742;BME280;33504;52.066;6.096;2022-11-02T09:13:32;101808.42;;;19.97;32.08
47742;BME280;33504;52.066;6.096;2022-11-02T09:15:59;101809.98;;;20.73;31.60
47742;BME280;33504;52.066;6.096;2022-11-02T09:18:27;101815.26;;;20.57;30.73
47742;BME280;33504;52.066;6.096;2022-11-02T09:20:54;101817.48;;;20.45;30.84
47742;BME280;33504;52.066;6.096;2022-11-02T09:23:22;101818.93;;;20.42;30.90
47742;BME280;33504;52.066;6.096;2022-11-02T09:25:49;101823.16;;;20.31;30.56
47742;BME280;33504;52.066;6.096;2022-11-02T09:28:17;101822.72;;;20.10;30.70
47742;BME280;33504;52.066;6.096;2022-11-02T09:30:44;101828.13;;;20.42;30.86
47742;BME280;33504;52.066;6.096;2022-11-02T09:33:12;101838.96;;;20.59;30.45
47742;BME280;33504;52.066;6.096;2022-11-02T09:35:41;101842.24;;;20.68;30.00
47742;BME280;33504;52.066;6.096;2022-11-02T09:38:08;101835.58;;;20.90;30.37
47742;BME280;33504;52.066;6.096;2022-11-02T09:40:36;101835.08;;;20.44;30.10
47742;BME280;33504;52.066;6.096;2022-11-02T09:43:11;101844.38;;;20.44;30.04
47742;BME280;33504;52.066;6.096;2022-11-02T09:45:52;101853.46;;;20.10;30.69
47742;BME280;33504;52.066;6.096;2022-11-02T09:48:24;101857.97;;;19.94;30.96
47742;BME280;33504;52.066;6.096;2022-11-02T09:50:58;101871.79;;;19.86;31.20
47742;BME280;33504;52.066;6.096;2022-11-02T09:53:34;101868.03;;;19.94;31.52
47742;BME280;33504;52.066;6.096;2022-11-02T09:56:03;101871.85;;;19.97;31.42
47742;BME280;33504;52.066;6.096;2022-11-02T09:58:34;101875.81;;;20.31;30.50
47742;BME280;33504;52.066;6.096;2022-11-02T10:01:12;101881.93;;;21.24;30.04
47742;BME280;33504;52.066;6.096;2022-11-02T10:03:58;101881.70;;;21.17;29.34
47742;BME280;33504;52.066;6.096;2022-11-02T10:06:35;101890.21;;;21.92;29.41
47742;BME280;33504;52.066;6.096;2022-11-02T10:09:08;101893.14;;;21.88;28.48
47742;BME280;33504;52.066;6.096;2022-11-02T10:11:45;101901.58;;;21.41;28.61
47742;BME280;33504;52.066;6.096;2022-11-02T10:14:17;101902.99;;;21.85;28.34
47742;BME280;33504;52.066;6.096;2022-11-02T10:16:50;101909.23;;;22.54;27.90
47742;BME280;33504;52.066;6.096;2022-11-02T10:19:19;101907.72;;;22.71;26.93
47742;BME280;33504;52.066;6.096;2022-11-02T10:21:50;101902.19;;;22.60;27.26
47742;BME280;33504;52.066;6.096;2022-11-02T10:24:23;101905.58;;;22.71;26.84
47742;BME280;33504;52.066;6.096;2022-11-02T10:26:55;101913.16;;;22.89;26.60
47742;BME280;33504;52.066;6.096;2022-11-02T10:29:34;101905.22;;;23.58;26.32
47742;BME280;33504;52.066;6.096;2022-11-02T10:32:07;101912.69;;;23.60;25.65
47742;BME280;33504;52.066;6.096;2022-11-02T10:34:35;101905.43;;;23.69;25.75
47742;BME280;33504;52.066;6.096;2022-11-02T10:37:22;101908.31;;;23.41;25.79
47742;BME280;33504;52.066;6.096;2022-11-02T10:40:03;101910.18;;;24.31;24.89
47742;BME280;33504;52.066;6.096;2022-11-02T10:42:46;101921.28;;;24.38;24.83
47742;BME280;33504;52.066;6.096;2022-11-02T10:45:35;101918.77;;;24.25;25.00
47742;BME280;33504;52.066;6.096;2022-11-02T10:48:11;101920.54;;;22.79;25.85
47742;BME280;33504;52.066;6.096;2022-11-02T10:50:46;101935.85;;;22.34;26.30
47742;BME280;33504;52.066;6.096;2022-11-02T10:53:15;101932.81;;;21.55;27.40
47742;BME280;33504;52.066;6.096;2022-11-02T10:55:50;101933.63;;;21.34;27.61
47742;BME280;33504;52.066;6.096;2022-11-02T10:58:25;101927.97;;;21.42;27.48
47742;BME280;33504;52.066;6.096;2022-11-02T11:01:03;101930.48;;;20.47;29.06
47742;BME280;33504;52.066;6.096;2022-11-02T11:03:31;101940.81;;;20.63;29.12
47742;BME280;33504;52.066;6.096;2022-11-02T11:05:59;101935.88;;;20.83;28.33
47742;BME280;33504;52.066;6.096;2022-11-02T11:08:30;101940.84;;;20.74;28.26
47742;BME280;33504;52.066;6.096;2022-11-02T11:11:17;101947.39;;;19.83;29.49
47742;BME280;33504;52.066;6.096;2022-11-02T11:13:53;101953.69;;;19.83;29.85
47742;BME280;33504;52.066;6.096;2022-11-02T11:16:30;101949.53;;;19.49;29.85
47742;BME280;33504;52.066;6.096;2022-11-02T11:18:59;101946.29;;;20.03;29.17
47742;BME280;33504;52.066;6.096;2022-11-02T11:21:35;101945.88;;;20.03;29.34
47742;BME280;33504;52.066;6.096;2022-11-02T11:24:20;101952.73;;;20.11;29.44
47742;BME280;33504;52.066;6.096;2022-11-02T11:27:21;101950.97;;;20.35;29.77
47742;BME280;33504;52.066;6.096;2022-11-02T11:29:52;101949.96;;;19.97;29.43
47742;BME280;33504;52.066;6.096;2022-11-02T11:32:22;101952.89;;;19.18;30.44
47742;BME280;33504;52.066;6.096;2022-11-02T11:34:55;101953.29;;;19.45;30.46
47742;BME280;33504;52.066;6.096;2022-11-02T11:37:23;101959.81;;;19.36;30.77
47742;BME280;33504;52.066;6.096;2022-11-02T11:39:54;101965.05;;;18.89;31.53
47742;BME280;33504;52.066;6.096;2022-11-02T11:42:24;101961.94;;;18.92;31.62
47742;BME280;33504;52.066;6.096;2022-11-02T11:44:57;101959.37;;;18.96;31.37
47742;BME280;33504;52.066;6.096;2022-11-02T11:47:28;101955.13;;;18.76;31.84
47742;BME280;33504;52.066;6.096;2022-11-02T11:49:57;101963.81;;;19.21;32.01
47742;BME280;33504;52.066;6.096;2022-11-02T11:52:28;101967.58;;;18.31;32.61
47742;BME280;33504;52.066;6.096;2022-11-02T11:54:58;101966.55;;;18.26;32.85
47742;BME280;33504;52.066;6.096;2022-11-02T11:57:27;101957.93;;;18.75;32.38
47742;BME280;33504;52.066;6.096;2022-11-02T11:59:55;101958.58;;;18.47;32.29
47742;BME280;33504;52.066;6.096;2022-11-02T12:02:23;101952.22;;;18.80;32.30
47742;BME280;33504;52.066;6.096;2022-11-02T12:04:51;101949.60;;;18.23;32.57
47742;BME280;33504;52.066;6.096;2022-11-02T12:07:29;101951.79;;;18.72;32.53
47742;BME280;33504;52.066;6.096;2022-11-02T12:10:10;101953.77;;;18.83;31.84
47742;BME280;33504;52.066;6.096;2022-11-02T12:12:54;101953.39;;;18.82;32.31
47742;BME280;33504;52.066;6.096;2022-11-02T12:15:38;101950.26;;;18.55;32.35
47742;BME280;33504;52.066;6.096;2022-11-02T12:18:30;101937.81;;;18.64;32.12
47742;BME280;33504;52.066;6.096;2022-11-02T12:21:08;101929.80;;;18.63;32.33
47742;BME280;33504;52.066;6.096;2022-11-02T12:23:48;101934.27;;;19.18;32.26
47742;BME280;33504;52.066;6.096;2022-11-02T12:26:26;101923.76;;;18.38;31.58
47742;BME280;33504;52.066;6.096;2022-11-02T12:29:01;101921.78;;;18.56;32.38
47742;BME280;33504;52.066;6.096;2022-11-02T12:31:36;101923.26;;;18.49;31.76
47742;BME280;33504;52.066;6.096;2022-11-02T12:34:14;101929.55;;;18.52;31.90
47742;BME280;33504;52.066;6.096;2022-11-02T12:36:59;101925.54;;;18.01;31.97
47742;BME280;33504;52.066;6.096;2022-11-02T12:39:34;101926.01;;;18.13;31.62
47742;BME280;33504;52.066;6.096;2022-11-02T12:42:21;101925.29;;;18.26;31.34
47742;BME280;33504;52.066;6.096;2022-11-02T12:45:01;101928.35;;;18.44;30.97
47742;BME280;33504;52.066;6.096;2022-11-02T12:47:44;101930.32;;;18.80;30.58
47742;BME280;33504;52.066;6.096;2022-11-02T12:50:22;101925.81;;;18.81;30.47
47742;BME280;33504;52.066;6.096;2022-11-02T12:53:00;101923.32;;;19.19;29.66
47742;BME280;33504;52.066;6.096;2022-11-02T12:55:38;101923.90;;;18.41;30.36
47742;BME280;33504;52.066;6.096;2022-11-02T12:58:13;101914.39;;;17.89;30.85
47742;BME280;33504;52.066;6.096;2022-11-02T13:00:43;101911.18;;;18.36;30.76
47742;BME280;33504;52.066;6.096;2022-11-02T13:03:22;101908.39;;;18.41;29.47
47742;BME280;33504;52.066;6.096;2022-11-02T13:05:55;101902.00;;;18.34;29.69